createdAt,value
2022-11-17T00:01:15.029Z,28.16
2022-11-17T00:06:14.220Z,28.68
2022-11-17T00:11:14.378Z,29.20
2022-11-17T00:16:12.545Z,29.92
2022-11-17T00:21:14.911Z,30.44
2022-11-17T00:26:14.161Z,30.94
2022-11-17T00:31:11.272Z,31.37
2022-11-17T00:36:13.578Z,31.78
2022-11-17T00:41:08.849Z,32.40
2022-11-17T00:46:09.143Z,32.93
2022-11-17T00:51:11.412Z,33.34
2022-11-17T00:56:06.676Z,33.87
2022-11-17T01:01:06.073Z,34.18
2022-11-17T01:06:06.180Z,34.69
2022-11-17T01:11:04.492Z,34.91
2022-11-17T01:16:03.775Z,35.44
2022-11-17T01:21:03.201Z,35.74
2022-11-17T01:26:03.325Z,36.05
2022-11-17T01:31:01.626Z,36.36
2022-11-17T01:36:01.943Z,36.49
2022-11-17T01:41:00.250Z,36.80
2022-11-17T01:45:59.596Z,37.12
2022-11-17T01:50:59.704Z,37.32
2022-11-17T01:55:58.005Z,37.43
2022-11-17T02:00:57.345Z,37.75
2022-11-17T02:05:56.637Z,38.07
2022-11-17T02:10:55.943Z,38.27
2022-11-17T02:15:55.225Z,38.39
2022-11-17T02:20:55.535Z,38.48
2022-11-17T02:25:53.868Z,38.60
2022-11-17T02:30:52.972Z,38.70
2022-11-17T02:35:52.292Z,38.90
2022-11-17T02:40:51.624Z,38.92
2022-11-17T02:45:51.720Z,39.02
2022-11-17T02:50:51.020Z,39.14
2022-11-17T02:55:49.305Z,39.34
2022-11-17T03:00:48.587Z,39.14
2022-11-17T03:05:47.910Z,39.36
2022-11-17T03:10:47.192Z,39.46
2022-11-17T03:15:47.502Z,39.56
2022-11-17T03:20:47.816Z,39.67
2022-11-17T03:25:46.127Z,39.78
2022-11-17T03:30:44.452Z,39.98
2022-11-17T03:35:49.327Z,40.00
2022-11-17T03:40:46.971Z,40.00
2022-11-17T03:45:45.636Z,40.09
2022-11-17T03:50:41.577Z,40.19
2022-11-17T03:55:40.803Z,40.31
2022-11-17T04:00:40.062Z,40.41
2022-11-17T04:05:39.238Z,40.52
2022-11-17T04:10:40.477Z,40.52
2022-11-17T04:15:38.564Z,40.41
2022-11-17T04:20:37.884Z,40.43
2022-11-17T04:25:36.207Z,40.63
2022-11-17T04:30:35.596Z,40.73
2022-11-17T04:35:35.614Z,40.83
2022-11-17T04:40:34.759Z,40.83
2022-11-17T04:45:34.093Z,40.73
2022-11-17T04:50:33.517Z,40.53
2022-11-17T04:55:31.724Z,40.33
2022-11-17T05:00:30.854Z,40.23
2022-11-17T05:05:30.123Z,40.13
2022-11-17T05:10:29.396Z,40.03
2022-11-17T05:15:29.686Z,39.93
2022-11-17T05:20:29.013Z,39.93
2022-11-17T05:25:28.265Z,39.83
2022-11-17T05:30:26.545Z,39.83
2022-11-17T05:35:25.859Z,39.83
2022-11-17T05:40:25.156Z,39.93
2022-11-17T05:45:25.483Z,40.03
2022-11-17T05:50:23.591Z,40.15
2022-11-17T05:55:22.936Z,40.35
2022-11-17T06:00:22.039Z,40.35
2022-11-17T06:05:22.374Z,40.45
2022-11-17T06:10:20.719Z,40.57
2022-11-17T06:15:20.075Z,40.87
2022-11-17T06:20:19.200Z,40.87
2022-11-17T06:25:19.694Z,40.67
2022-11-17T06:30:17.871Z,40.47
2022-11-17T06:35:18.213Z,39.83
2022-11-17T06:40:16.476Z,39.31
2022-11-17T06:45:15.738Z,38.91
2022-11-17T06:50:16.971Z,38.49
2022-11-17T06:55:16.130Z,38.40
2022-11-17T07:00:16.457Z,38.20
2022-11-17T07:05:13.880Z,38.09
2022-11-17T07:10:11.783Z,37.99
2022-11-17T07:15:11.017Z,38.29
2022-11-17T07:20:11.243Z,38.40
2022-11-17T07:25:08.515Z,38.61
2022-11-17T07:30:09.702Z,38.71
2022-11-17T07:35:10.020Z,38.83
2022-11-17T07:40:07.223Z,38.83
2022-11-17T07:45:06.637Z,39.03
2022-11-17T07:50:06.541Z,39.25
2022-11-17T07:55:04.850Z,35.58
2022-11-17T08:00:04.113Z,32.15
2022-11-17T08:05:03.448Z,30.09
2022-11-17T08:10:02.571Z,29.05
2022-11-17T08:15:03.918Z,28.74
2022-11-17T08:20:01.216Z,29.05
2022-11-17T08:25:00.496Z,28.31
2022-11-17T08:29:59.777Z,27.69
2022-11-17T08:35:00.064Z,27.69
2022-11-17T08:39:58.368Z,28.00
2022-11-17T08:44:57.667Z,27.68
2022-11-17T08:49:58.046Z,40.05
2022-11-17T08:54:56.175Z,43.51
2022-11-17T08:59:55.267Z,42.98
2022-11-17T09:04:56.563Z,41.73
2022-11-17T09:09:53.846Z,42.61
2022-11-17T09:14:54.140Z,40.66
2022-11-17T09:19:52.422Z,42.40
2022-11-17T09:24:51.690Z,41.43
2022-11-17T09:29:50.995Z,44.59
2022-11-17T09:34:51.331Z,43.96
2022-11-17T09:39:49.475Z,44.59
2022-11-17T09:44:49.722Z,44.45
2022-11-17T09:49:52.170Z,44.51
2022-11-17T09:54:46.557Z,45.14
2022-11-17T09:59:47.766Z,43.64
2022-11-17T10:04:46.706Z,46.14
2022-11-17T10:09:44.895Z,43.52
2022-11-17T10:14:45.088Z,31.60
2022-11-17T10:19:44.276Z,30.99
2022-11-17T10:24:42.487Z,30.99
2022-11-17T10:29:43.712Z,31.31
2022-11-17T10:34:41.819Z,31.62
2022-11-17T10:39:42.160Z,31.72
2022-11-17T10:44:39.436Z,31.84
2022-11-17T10:49:38.762Z,32.15
2022-11-17T10:54:38.039Z,32.24
2022-11-17T10:59:37.339Z,32.56
2022-11-17T11:04:36.623Z,32.78
2022-11-17T11:09:37.905Z,32.99
2022-11-17T11:14:36.209Z,33.39
2022-11-17T11:19:34.510Z,33.60
2022-11-17T11:24:33.805Z,33.92
2022-11-17T11:29:33.149Z,34.23
2022-11-17T11:34:33.587Z,34.55
2022-11-17T11:39:32.740Z,34.86
2022-11-17T11:44:31.858Z,35.16
2022-11-17T11:49:29.984Z,35.47
2022-11-17T11:54:29.127Z,35.79
2022-11-17T11:59:29.247Z,35.99
2022-11-17T12:04:28.729Z,36.21
2022-11-17T12:09:27.870Z,36.43
2022-11-17T12:14:26.201Z,36.63
2022-11-17T12:19:25.482Z,36.82
2022-11-17T12:24:25.786Z,36.94
2022-11-17T12:29:25.087Z,37.14
2022-11-17T12:34:24.367Z,37.36
2022-11-17T12:39:23.685Z,37.46
2022-11-17T12:44:22.008Z,37.46
2022-11-17T12:49:21.151Z,37.68
2022-11-17T12:54:19.305Z,37.77
2022-11-17T12:59:20.666Z,37.88
2022-11-17T13:04:18.949Z,37.98
2022-11-17T13:09:18.241Z,38.09
2022-11-17T13:14:19.566Z,38.20
2022-11-17T13:19:16.869Z,38.29
2022-11-17T13:24:17.197Z,38.40
2022-11-17T13:29:16.478Z,38.29
2022-11-17T13:34:15.081Z,38.20
2022-11-17T13:39:13.990Z,37.98
2022-11-17T13:44:14.552Z,37.77
2022-11-17T13:49:13.498Z,37.56
2022-11-17T13:54:11.955Z,37.46
2022-11-17T13:59:11.932Z,37.36
2022-11-17T14:04:14.000Z,37.36
2022-11-17T14:09:11.428Z,37.26
2022-11-17T14:14:08.756Z,37.36
2022-11-17T14:19:08.059Z,37.36
2022-11-17T14:24:07.359Z,37.46
2022-11-17T14:29:06.653Z,37.56
2022-11-17T14:34:05.940Z,37.77
2022-11-17T14:39:05.263Z,37.88
2022-11-17T14:44:04.560Z,37.98
2022-11-17T14:49:04.888Z,38.18
2022-11-17T14:54:05.171Z,38.29
2022-11-17T14:59:02.535Z,38.40
2022-11-17T15:04:20.860Z,38.49
2022-11-17T15:09:00.797Z,38.59
2022-11-17T15:14:00.095Z,38.81
2022-11-17T15:19:00.422Z,38.91
2022-11-17T15:23:59.723Z,38.81
2022-11-17T15:28:59.045Z,38.70
2022-11-17T15:33:57.334Z,38.49
2022-11-17T15:38:57.508Z,38.29
2022-11-17T15:43:55.772Z,38.07
2022-11-17T15:48:56.058Z,37.76
2022-11-17T15:53:57.323Z,37.66
2022-11-17T15:58:53.581Z,37.56
2022-11-17T16:03:56.993Z,37.46
2022-11-17T16:08:52.062Z,37.56
2022-11-17T16:13:51.374Z,37.66
2022-11-17T16:18:51.684Z,37.76
2022-11-17T16:23:50.004Z,37.88
2022-11-17T16:28:51.340Z,38.07
2022-11-17T16:33:48.625Z,38.28
2022-11-17T16:39:00.281Z,38.59
2022-11-17T16:43:48.095Z,39.39
2022-11-17T16:48:47.528Z,39.31
2022-11-17T16:53:46.703Z,39.41
2022-11-17T16:58:45.854Z,39.41
2022-11-17T17:03:44.155Z,39.63
2022-11-17T17:08:43.353Z,39.63
2022-11-17T17:13:43.481Z,39.51
2022-11-17T17:18:42.932Z,39.31
2022-11-17T17:23:40.946Z,39.09
2022-11-17T17:28:41.135Z,38.79
2022-11-17T17:33:39.238Z,38.38
2022-11-17T17:38:38.567Z,38.38
2022-11-17T17:43:38.030Z,38.18
2022-11-17T17:48:38.389Z,38.06
2022-11-17T17:53:37.553Z,38.07
2022-11-17T17:58:39.429Z,38.18
2022-11-17T18:03:35.186Z,38.28
2022-11-17T18:08:37.526Z,38.38
2022-11-17T18:13:33.296Z,38.59
2022-11-17T18:18:32.409Z,38.79
2022-11-17T18:23:36.210Z,38.91
2022-11-17T18:28:31.295Z,39.11
2022-11-17T18:33:31.588Z,39.31
2022-11-17T18:38:30.914Z,39.53
2022-11-17T18:43:32.817Z,39.73
2022-11-17T18:48:29.154Z,39.93
2022-11-17T18:53:27.824Z,40.03
2022-11-17T18:58:28.626Z,39.83
2022-11-17T19:03:27.276Z,39.73
2022-11-17T19:08:27.170Z,39.41
2022-11-17T19:13:29.679Z,39.22
2022-11-17T19:18:24.132Z,38.89
2022-11-17T19:23:24.367Z,38.49
2022-11-17T19:28:22.627Z,38.38
2022-11-17T19:33:21.950Z,38.28
2022-11-17T19:38:22.294Z,38.18
2022-11-17T19:43:24.528Z,38.07
2022-11-17T19:48:21.838Z,38.28
2022-11-17T19:53:19.146Z,38.28
2022-11-17T19:58:20.244Z,38.49
2022-11-17T20:03:18.301Z,38.70
2022-11-17T20:08:30.807Z,38.79
2022-11-17T20:13:16.033Z,39.01
2022-11-17T20:18:14.986Z,39.11
2022-11-17T20:23:15.276Z,39.31
2022-11-17T20:28:14.858Z,39.53
2022-11-17T20:33:14.010Z,39.73
2022-11-17T20:38:15.677Z,39.73
2022-11-17T20:43:11.432Z,39.73
2022-11-17T20:48:11.760Z,39.53
2022-11-17T20:53:11.050Z,39.11
2022-11-17T20:58:10.140Z,38.59
2022-11-17T21:03:09.186Z,38.18
2022-11-17T21:08:07.581Z,38.07
2022-11-17T21:13:06.791Z,37.86
2022-11-17T21:18:05.935Z,37.86
2022-11-17T21:23:06.087Z,37.66
2022-11-17T21:28:04.308Z,37.76
2022-11-17T21:33:04.595Z,37.76
2022-11-17T21:38:02.901Z,37.98
2022-11-17T21:43:02.067Z,38.07
2022-11-17T21:48:01.276Z,38.29
2022-11-17T21:53:00.556Z,38.49
2022-11-17T21:57:59.782Z,38.71
2022-11-17T22:02:59.998Z,38.91
2022-11-17T22:07:58.308Z,39.11
2022-11-17T22:12:58.495Z,39.33
2022-11-17T22:17:56.716Z,39.43
2022-11-17T22:22:56.994Z,39.53
2022-11-17T22:27:57.234Z,39.43
2022-11-17T22:32:54.460Z,38.91
2022-11-17T22:37:53.615Z,38.49
2022-11-17T22:42:52.784Z,37.86
2022-11-17T22:47:51.904Z,37.46
2022-11-17T22:52:54.226Z,37.24
2022-11-17T22:57:51.595Z,37.14
2022-11-17T23:02:48.886Z,37.24
2022-11-17T23:07:49.095Z,37.24
2022-11-17T23:12:48.448Z,37.34
2022-11-17T23:17:47.762Z,37.46
2022-11-17T23:22:48.002Z,37.66
2022-11-17T23:27:46.167Z,37.88
2022-11-17T23:32:46.395Z,38.18
2022-11-17T23:37:45.766Z,38.40
2022-11-17T23:42:43.745Z,38.59
2022-11-17T23:47:42.939Z,38.91
2022-11-17T23:52:43.285Z,39.01
2022-11-17T23:57:41.526Z,39.23
